createdAt,value
2018-11-04T00:00:19.194Z,7.59
2018-11-04T00:02:48.178Z,7.56
2018-11-04T00:05:16.856Z,7.55
2018-11-04T00:07:45.968Z,7.57
2018-11-04T00:10:14.309Z,7.60
2018-11-04T00:12:42.659Z,7.59
2018-11-04T00:15:11.716Z,7.63
2018-11-04T00:17:40.501Z,7.64
2018-11-04T00:20:11.043Z,7.65
2018-11-04T00:22:39.554Z,7.66
2018-11-04T00:25:09.128Z,7.69
2018-11-04T00:27:37.703Z,7.71
2018-11-04T00:30:07.696Z,7.66
2018-11-04T00:32:36.070Z,7.63
2018-11-04T00:35:04.654Z,7.72
2018-11-04T00:37:33.010Z,7.71
2018-11-04T00:40:01.350Z,7.73
2018-11-04T00:42:29.762Z,7.73
2018-11-04T00:44:58.105Z,7.77
2018-11-04T00:47:26.472Z,7.74
2018-11-04T00:49:54.828Z,7.74
2018-11-04T00:52:23.232Z,7.75
2018-11-04T00:54:51.600Z,7.79
2018-11-04T00:57:19.959Z,7.78
2018-11-04T00:59:48.316Z,7.78
2018-11-04T01:02:16.658Z,7.82
2018-11-04T01:04:45.020Z,7.82
2018-11-04T01:07:13.404Z,7.84
2018-11-04T01:09:41.759Z,7.80
2018-11-04T01:12:10.107Z,7.81
2018-11-04T01:14:38.445Z,7.83
2018-11-04T01:17:06.790Z,7.84
2018-11-04T01:19:35.137Z,7.87
2018-11-04T01:22:03.494Z,7.87
2018-11-04T01:24:32.534Z,7.88
2018-11-04T01:27:00.792Z,7.90
2018-11-04T01:29:29.131Z,7.91
2018-11-04T01:31:57.492Z,7.86
2018-11-04T01:34:25.838Z,7.91
2018-11-04T01:36:54.202Z,7.90
2018-11-04T01:39:22.549Z,7.89
2018-11-04T01:41:50.906Z,7.89
2018-11-04T01:44:19.268Z,7.92
2018-11-04T01:46:47.617Z,7.90
2018-11-04T01:49:15.948Z,7.91
2018-11-04T01:51:44.376Z,7.91
2018-11-04T01:54:12.717Z,7.93
2018-11-04T01:56:41.082Z,7.93
2018-11-04T01:59:09.644Z,7.96
2018-11-04T02:01:37.997Z,7.94
2018-11-04T02:04:06.777Z,7.94
2018-11-04T02:06:35.148Z,7.95
2018-11-04T02:09:03.553Z,7.94
2018-11-04T02:11:31.910Z,7.99
2018-11-04T02:14:00.248Z,8.02
2018-11-04T02:16:28.608Z,8.02
2018-11-04T02:18:56.961Z,8.03
2018-11-04T02:21:25.432Z,8.04
2018-11-04T02:23:53.797Z,8.05
2018-11-04T02:26:22.250Z,8.06
2018-11-04T02:28:50.605Z,8.07
2018-11-04T02:31:18.959Z,8.07
2018-11-04T02:33:47.302Z,8.10
2018-11-04T02:36:15.686Z,8.08
2018-11-04T02:38:44.040Z,8.11
2018-11-04T02:41:12.399Z,8.13
2018-11-04T02:43:40.750Z,8.11
2018-11-04T02:46:09.186Z,8.18
2018-11-04T02:48:37.960Z,8.21
2018-11-04T02:51:06.540Z,8.22
2018-11-04T02:53:34.879Z,8.20
2018-11-04T02:56:03.231Z,8.23
2018-11-04T02:58:31.591Z,8.26
2018-11-04T03:00:59.945Z,8.24
2018-11-04T03:03:28.265Z,8.25
2018-11-04T03:05:56.601Z,8.26
2018-11-04T03:08:24.979Z,8.27
2018-11-04T03:10:53.322Z,8.30
2018-11-04T03:13:21.733Z,8.30
2018-11-04T03:15:50.057Z,8.31
2018-11-04T03:18:18.425Z,8.31
2018-11-04T03:20:46.791Z,8.35
2018-11-04T03:23:15.128Z,8.36
2018-11-04T03:25:43.471Z,8.39
2018-11-04T03:28:11.912Z,8.38
2018-11-04T03:30:40.419Z,8.40
2018-11-04T03:33:09.621Z,8.39
2018-11-04T03:35:38.102Z,8.41
2018-11-04T03:38:06.988Z,8.43
2018-11-04T03:40:35.325Z,8.45
2018-11-04T03:43:03.666Z,8.47
2018-11-04T03:45:32.014Z,8.47
2018-11-04T03:48:00.360Z,8.43
2018-11-04T03:50:28.727Z,8.47
2018-11-04T03:53:02.335Z,8.47
2018-11-04T03:55:30.674Z,8.46
2018-11-04T03:57:59.020Z,8.47
2018-11-04T04:00:27.406Z,8.49
2018-11-04T04:02:55.778Z,8.48
2018-11-04T04:05:24.122Z,8.52
2018-11-04T04:07:52.465Z,8.53
2018-11-04T04:10:20.813Z,8.56
2018-11-04T04:12:49.140Z,8.52
2018-11-04T04:15:17.487Z,8.56
2018-11-04T04:17:45.849Z,8.55
2018-11-04T04:20:14.182Z,8.55
2018-11-04T04:22:42.516Z,8.56
2018-11-04T04:25:10.875Z,8.57
2018-11-04T04:27:39.360Z,8.60
2018-11-04T04:30:09.512Z,8.58
2018-11-04T04:32:37.846Z,8.60
2018-11-04T04:35:07.309Z,8.64
2018-11-04T04:37:35.673Z,8.62
2018-11-04T04:40:04.027Z,8.65
2018-11-04T04:42:32.372Z,8.65
2018-11-04T04:45:00.883Z,8.68
2018-11-04T04:47:29.230Z,8.70
2018-11-04T04:49:57.586Z,8.70
2018-11-04T04:52:25.921Z,8.72
2018-11-04T04:54:54.232Z,8.73
2018-11-04T04:57:22.577Z,8.73
2018-11-04T04:59:50.897Z,8.76
2018-11-04T05:02:19.230Z,8.77
2018-11-04T05:04:47.573Z,8.75
2018-11-04T05:07:15.922Z,8.74
2018-11-04T05:09:44.360Z,8.76
2018-11-04T05:12:12.714Z,8.79
2018-11-04T05:14:41.267Z,8.75
2018-11-04T05:17:09.621Z,8.78
2018-11-04T05:19:37.962Z,8.77
2018-11-04T05:22:07.008Z,8.79
2018-11-04T05:24:35.374Z,8.81
2018-11-04T05:27:03.914Z,8.81
2018-11-04T05:29:32.269Z,8.81
2018-11-04T05:32:00.624Z,8.81
2018-11-04T05:34:29.041Z,8.81
2018-11-04T05:36:57.384Z,8.83
2018-11-04T05:39:25.771Z,8.82
2018-11-04T05:41:54.145Z,8.86
2018-11-04T05:44:22.496Z,8.88
2018-11-04T05:46:50.861Z,8.88
2018-11-04T05:49:19.326Z,8.89
2018-11-04T05:51:47.687Z,8.91
2018-11-04T05:54:16.029Z,8.92
2018-11-04T05:56:44.380Z,8.94
2018-11-04T05:59:12.717Z,8.96
2018-11-04T06:01:41.082Z,8.93
2018-11-04T06:04:10.014Z,8.98
2018-11-04T06:06:38.482Z,9.00
2018-11-04T06:09:08.305Z,8.99
2018-11-04T06:11:36.656Z,9.00
2018-11-04T06:14:05.269Z,8.99
2018-11-04T06:16:33.684Z,9.01
2018-11-04T06:19:02.018Z,9.03
2018-11-04T06:21:30.540Z,9.06
2018-11-04T06:23:59.051Z,9.06
2018-11-04T06:26:27.406Z,9.09
2018-11-04T06:28:55.749Z,9.08
2018-11-04T06:31:24.239Z,9.08
2018-11-04T06:33:53.058Z,9.09
2018-11-04T06:36:21.664Z,9.11
2018-11-04T06:38:50.245Z,9.11
2018-11-04T06:41:18.836Z,9.14
2018-11-04T06:43:47.046Z,9.13
2018-11-04T06:46:15.411Z,9.17
2018-11-04T06:48:43.778Z,9.18
2018-11-04T06:51:12.279Z,9.15
2018-11-04T06:53:40.630Z,9.16
2018-11-04T06:56:08.977Z,9.20
2018-11-04T06:58:37.316Z,9.22
2018-11-04T07:01:05.651Z,9.22
2018-11-04T07:03:33.985Z,9.24
2018-11-04T07:06:02.333Z,9.27
2018-11-04T07:08:30.669Z,9.30
2018-11-04T07:10:59.034Z,9.32
2018-11-04T07:13:27.366Z,9.32
2018-11-04T07:15:55.705Z,9.34
2018-11-04T07:18:24.055Z,9.35
2018-11-04T07:20:52.391Z,9.38
2018-11-04T07:23:21.309Z,9.37
2018-11-04T07:25:49.711Z,9.34
2018-11-04T07:28:18.005Z,9.38
2018-11-04T07:30:46.357Z,9.43
2018-11-04T07:33:14.846Z,9.43
2018-11-04T07:35:43.184Z,9.44
2018-11-04T07:38:11.534Z,9.47
2018-11-04T07:40:39.861Z,9.44
2018-11-04T07:43:08.196Z,9.47
2018-11-04T07:45:36.557Z,9.48
2018-11-04T07:48:05.248Z,9.44
2018-11-04T07:50:33.644Z,9.46
2018-11-04T07:53:01.939Z,9.50
2018-11-04T07:55:30.293Z,9.53
2018-11-04T07:57:58.634Z,9.54
2018-11-04T08:00:26.972Z,9.56
2018-11-04T08:02:55.322Z,9.59
2018-11-04T08:05:23.667Z,9.60
2018-11-04T08:07:52.004Z,9.60
2018-11-04T08:10:20.781Z,9.65
2018-11-04T08:12:49.177Z,9.70
2018-11-04T08:15:17.518Z,9.71
2018-11-04T08:17:45.857Z,9.74
2018-11-04T08:20:14.190Z,9.72
2018-11-04T08:22:42.527Z,9.73
2018-11-04T08:25:10.909Z,9.76
2018-11-04T08:27:39.292Z,9.77
2018-11-04T08:30:08.543Z,9.76
2018-11-04T08:32:36.982Z,9.83
2018-11-04T08:35:05.895Z,9.86
2018-11-04T08:37:34.396Z,9.83
2018-11-04T08:40:03.218Z,9.90
2018-11-04T08:42:31.787Z,9.95
2018-11-04T08:45:00.137Z,9.93
2018-11-04T08:47:28.609Z,9.92
2018-11-04T08:49:56.986Z,9.93
2018-11-04T08:52:25.391Z,9.99
2018-11-04T08:54:53.741Z,10.03
2018-11-04T08:57:22.110Z,10.02
2018-11-04T08:59:50.497Z,10.06
2018-11-04T09:02:18.837Z,10.05
2018-11-04T09:04:47.161Z,10.07
2018-11-04T09:07:15.501Z,10.09
2018-11-04T09:09:43.887Z,10.11
2018-11-04T09:12:12.261Z,10.11
2018-11-04T09:14:40.614Z,10.13
2018-11-04T09:17:09.385Z,10.12
2018-11-04T09:19:37.737Z,10.19
2018-11-04T09:22:06.598Z,10.23
2018-11-04T09:24:34.741Z,10.28
2018-11-04T09:27:03.137Z,10.26
2018-11-04T09:29:31.585Z,10.28
2018-11-04T09:31:59.940Z,10.30
2018-11-04T09:34:28.324Z,10.33
2018-11-04T09:36:56.698Z,10.31
2018-11-04T09:39:25.043Z,10.32
2018-11-04T09:41:53.401Z,10.35
2018-11-04T09:44:21.764Z,10.38
2018-11-04T09:46:50.119Z,10.38
2018-11-04T09:49:18.468Z,10.42
2018-11-04T09:51:46.974Z,10.44
2018-11-04T09:54:15.359Z,10.44
2018-11-04T09:56:43.742Z,10.51
2018-11-04T09:59:12.081Z,10.51
2018-11-04T10:01:40.436Z,10.53
2018-11-04T10:04:08.809Z,10.57
2018-11-04T10:06:37.156Z,10.57
2018-11-04T10:09:07.865Z,10.56
2018-11-04T10:11:36.741Z,10.60
2018-11-04T10:14:05.152Z,10.62
2018-11-04T10:16:33.500Z,10.62
2018-11-04T10:19:02.025Z,10.66
2018-11-04T10:21:30.255Z,10.66
2018-11-04T10:23:58.638Z,10.65
2018-11-04T10:26:27.015Z,10.65
2018-11-04T10:28:55.374Z,10.65
2018-11-04T10:31:23.746Z,10.68
2018-11-04T10:33:52.133Z,10.69
2018-11-04T10:36:20.499Z,10.73
2018-11-04T10:38:48.881Z,10.72
2018-11-04T10:41:17.462Z,10.75
2018-11-04T10:43:45.836Z,10.78
2018-11-04T10:46:14.257Z,10.82
2018-11-04T10:48:42.609Z,10.84
2018-11-04T10:51:11.151Z,10.90
2018-11-04T10:53:39.494Z,10.90
2018-11-04T10:56:08.048Z,10.92
2018-11-04T10:58:36.426Z,10.93
2018-11-04T11:01:07.673Z,10.96
2018-11-04T11:03:36.647Z,10.97
2018-11-04T11:06:04.977Z,10.97
2018-11-04T11:08:33.329Z,10.96
2018-11-04T11:11:01.799Z,10.94
2018-11-04T11:13:30.588Z,10.97
2018-11-04T11:15:59.076Z,10.99
2018-11-04T11:18:27.648Z,11.00
2018-11-04T11:20:56.349Z,11.01
2018-11-04T11:23:24.688Z,11.07
2018-11-04T11:25:53.010Z,11.06
2018-11-04T11:28:21.358Z,11.02
2018-11-04T11:30:49.724Z,11.10
2018-11-04T11:33:18.084Z,11.06
2018-11-04T11:35:46.420Z,11.10
2018-11-04T11:38:14.755Z,11.10
2018-11-04T11:40:43.100Z,11.14
2018-11-04T11:43:11.453Z,11.08
2018-11-04T11:45:39.799Z,11.16
2018-11-04T11:48:08.615Z,11.18
2018-11-04T11:50:37.136Z,11.14
2018-11-04T11:53:05.916Z,11.17
2018-11-04T11:55:34.378Z,11.20
2018-11-04T11:58:02.737Z,11.20
2018-11-04T12:00:31.084Z,11.19
2018-11-04T12:02:59.426Z,11.24
2018-11-04T12:05:27.811Z,11.19
2018-11-04T12:07:56.159Z,11.21
2018-11-04T12:10:24.602Z,11.25
2018-11-04T12:12:52.954Z,11.22
2018-11-04T12:15:21.311Z,11.27
2018-11-04T12:17:49.759Z,11.30
2018-11-04T12:20:18.046Z,11.28
2018-11-04T12:22:46.607Z,11.28
2018-11-04T12:25:14.941Z,11.29
2018-11-04T12:27:43.464Z,11.27
2018-11-04T12:30:14.428Z,11.33
2018-11-04T12:32:42.785Z,11.36
2018-11-04T12:35:12.529Z,11.31
2018-11-04T12:37:41.257Z,11.35
2018-11-04T12:40:11.125Z,11.36
2018-11-04T12:42:39.459Z,11.34
2018-11-04T12:45:09.317Z,11.35
2018-11-04T12:47:37.826Z,11.41
2018-11-04T12:50:07.595Z,11.40
2018-11-04T12:52:35.946Z,11.40
2018-11-04T12:55:04.632Z,11.35
2018-11-04T12:57:32.990Z,11.35
2018-11-04T13:00:01.346Z,11.37
2018-11-04T13:02:29.716Z,11.39
2018-11-04T13:04:58.061Z,11.36
2018-11-04T13:07:26.399Z,11.37
2018-11-04T13:09:54.749Z,11.32
2018-11-04T13:12:23.097Z,11.33
2018-11-04T13:14:51.445Z,11.31
2018-11-04T13:17:19.805Z,11.32
2018-11-04T13:19:48.165Z,11.30
2018-11-04T13:22:16.512Z,11.30
2018-11-04T13:24:44.866Z,11.30
2018-11-04T13:27:13.238Z,11.32
2018-11-04T13:29:41.604Z,11.24
2018-11-04T13:32:10.031Z,11.23
2018-11-04T13:34:38.378Z,11.27
2018-11-04T13:37:07.186Z,11.28
2018-11-04T13:39:35.532Z,11.31
2018-11-04T13:42:03.935Z,11.28
2018-11-04T13:44:32.290Z,11.28
2018-11-04T13:47:00.639Z,11.29
2018-11-04T13:49:29.135Z,11.25
2018-11-04T13:51:57.369Z,11.26
2018-11-04T13:54:25.750Z,11.23
2018-11-04T13:56:54.113Z,11.25
2018-11-04T13:59:22.465Z,11.25
2018-11-04T14:01:50.807Z,11.23
2018-11-04T14:04:19.163Z,11.26
2018-11-04T14:06:47.543Z,11.27
2018-11-04T14:09:15.894Z,11.23
2018-11-04T14:11:44.267Z,11.25
2018-11-04T14:14:12.606Z,11.24
2018-11-04T14:16:40.959Z,11.26
2018-11-04T14:19:09.338Z,11.25
2018-11-04T14:21:37.690Z,11.25
2018-11-04T14:24:06.097Z,11.23
2018-11-04T14:26:34.431Z,11.23
2018-11-04T14:29:02.777Z,11.21
2018-11-04T14:31:31.132Z,11.20
2018-11-04T14:33:59.475Z,11.20
2018-11-04T14:36:27.854Z,11.22
2018-11-04T14:38:56.236Z,11.20
2018-11-04T14:41:24.591Z,11.23
2018-11-04T14:43:53.029Z,11.20
2018-11-04T14:46:21.425Z,11.20
2018-11-04T14:48:49.813Z,11.17
2018-11-04T14:51:18.467Z,11.18
2018-11-04T14:53:46.836Z,11.18
2018-11-04T14:56:15.187Z,11.21
2018-11-04T14:58:43.540Z,11.19
2018-11-04T15:01:12.019Z,11.17
2018-11-04T15:03:40.328Z,11.20
2018-11-04T15:06:08.672Z,11.18
2018-11-04T15:08:37.098Z,11.17
2018-11-04T15:11:05.474Z,11.18
2018-11-04T15:13:33.887Z,11.14
2018-11-04T15:16:02.396Z,11.14
2018-11-04T15:18:30.912Z,11.07
2018-11-04T15:20:59.241Z,11.09
2018-11-04T15:23:27.814Z,11.10
2018-11-04T15:25:56.158Z,11.08
2018-11-04T15:28:24.564Z,11.11
2018-11-04T15:30:52.917Z,11.10
2018-11-04T15:33:21.285Z,11.13
2018-11-04T15:35:49.621Z,11.12
2018-11-04T15:38:17.980Z,11.07
2018-11-04T15:40:46.329Z,11.08
2018-11-04T15:43:14.684Z,11.08
2018-11-04T15:45:43.049Z,11.10
2018-11-04T15:48:11.400Z,11.10
2018-11-04T15:50:39.741Z,11.04
2018-11-04T15:53:08.101Z,11.02
2018-11-04T15:55:37.277Z,11.06
2018-11-04T15:58:05.990Z,11.06
2018-11-04T16:00:34.331Z,11.00
2018-11-04T16:03:02.795Z,10.99
2018-11-04T16:05:31.244Z,11.01
2018-11-04T16:07:59.590Z,11.03
2018-11-04T16:10:27.937Z,11.04
2018-11-04T16:12:56.290Z,11.02
2018-11-04T16:15:24.661Z,11.04
2018-11-04T16:17:53.020Z,11.04
2018-11-04T16:20:21.400Z,11.07
2018-11-04T16:22:50.018Z,11.03
2018-11-04T16:25:18.414Z,11.00
2018-11-04T16:27:46.765Z,10.97
2018-11-04T16:30:15.938Z,11.01
2018-11-04T16:32:44.403Z,11.00
2018-11-04T16:35:13.711Z,11.01
2018-11-04T16:37:42.978Z,11.03
2018-11-04T16:40:11.500Z,11.03
2018-11-04T16:42:40.272Z,11.00
2018-11-04T16:45:13.372Z,11.03
2018-11-04T16:47:41.825Z,11.04
2018-11-04T16:50:11.228Z,11.04
2018-11-04T16:52:39.544Z,11.07
2018-11-04T16:55:08.563Z,11.04
2018-11-04T16:57:36.917Z,11.00
2018-11-04T17:00:06.059Z,11.01
2018-11-04T17:02:34.419Z,11.02
2018-11-04T17:05:02.889Z,11.03
2018-11-04T17:07:31.171Z,11.07
2018-11-04T17:09:59.527Z,11.05
2018-11-04T17:12:27.909Z,11.05
2018-11-04T17:14:56.283Z,11.07
2018-11-04T17:17:24.630Z,11.07
2018-11-04T17:19:53.017Z,11.09
2018-11-04T17:22:21.381Z,11.10
2018-11-04T17:24:49.991Z,11.11
2018-11-04T17:27:19.409Z,11.10
2018-11-04T17:29:47.976Z,11.11
2018-11-04T17:32:16.345Z,11.10
2018-11-04T17:34:44.859Z,11.12
2018-11-04T17:37:13.211Z,11.12
2018-11-04T17:39:41.571Z,11.12
2018-11-04T17:42:09.912Z,11.12
2018-11-04T17:44:38.297Z,11.13
2018-11-04T17:47:06.629Z,11.16
2018-11-04T17:49:34.985Z,11.14
2018-11-04T17:52:03.373Z,11.17
2018-11-04T17:54:31.743Z,11.17
2018-11-04T17:57:00.077Z,11.22
2018-11-04T17:59:28.436Z,11.19
2018-11-04T18:01:56.782Z,11.20
2018-11-04T18:04:25.103Z,11.19
2018-11-04T18:06:53.460Z,11.19
2018-11-04T18:09:21.821Z,11.19
2018-11-04T18:11:50.267Z,11.21
2018-11-04T18:14:18.642Z,11.21
2018-11-04T18:16:47.078Z,11.23
2018-11-04T18:19:15.444Z,11.23
2018-11-04T18:21:43.827Z,11.25
2018-11-04T18:24:12.202Z,11.27
2018-11-04T18:26:41.230Z,11.23
2018-11-04T18:29:09.603Z,11.24
2018-11-04T18:31:37.984Z,11.23
2018-11-04T18:34:06.528Z,11.24
2018-11-04T18:36:34.872Z,11.22
2018-11-04T18:39:04.061Z,11.27
2018-11-04T18:41:32.422Z,11.25
2018-11-04T18:44:01.055Z,11.28
2018-11-04T18:46:29.318Z,11.22
2018-11-04T18:48:58.104Z,11.26
2018-11-04T18:51:26.649Z,11.27
2018-11-04T18:53:55.068Z,11.24
2018-11-04T18:56:23.445Z,11.25
2018-11-04T18:58:52.281Z,11.27
2018-11-04T19:01:20.609Z,11.28
2018-11-04T19:03:48.969Z,11.30
2018-11-04T19:06:17.313Z,11.32
2018-11-04T19:08:46.568Z,11.28
2018-11-04T19:11:14.953Z,11.24
2018-11-04T19:13:43.328Z,11.25
2018-11-04T19:16:11.863Z,11.33
2018-11-04T19:18:40.289Z,11.29
2018-11-04T19:21:08.606Z,11.29
2018-11-04T19:23:36.944Z,11.30
2018-11-04T19:26:05.770Z,11.31
2018-11-04T19:28:34.100Z,11.36
2018-11-04T19:31:02.479Z,11.31
2018-11-04T19:33:30.907Z,11.32
2018-11-04T19:35:59.278Z,11.29
2018-11-04T19:38:27.629Z,11.31
2018-11-04T19:40:55.974Z,11.34
2018-11-04T19:43:24.392Z,11.30
2018-11-04T19:45:52.756Z,11.27
2018-11-04T19:48:21.328Z,11.25
2018-11-04T19:50:49.681Z,11.25
2018-11-04T19:53:18.051Z,11.28
2018-11-04T19:55:46.375Z,11.31
2018-11-04T19:58:14.755Z,11.29
2018-11-04T20:00:43.147Z,11.24
2018-11-04T20:03:11.516Z,11.26
2018-11-04T20:05:39.878Z,11.29
2018-11-04T20:08:08.248Z,11.27
2018-11-04T20:10:36.680Z,11.28
2018-11-04T20:13:10.500Z,11.27
2018-11-04T20:15:38.828Z,11.28
2018-11-04T20:18:12.695Z,11.27
2018-11-04T20:20:41.030Z,11.26
2018-11-04T20:23:09.376Z,11.24
2018-11-04T20:25:43.125Z,11.25
2018-11-04T20:28:11.440Z,11.26
2018-11-04T20:30:39.772Z,11.27
2018-11-04T20:33:09.855Z,11.26
2018-11-04T20:35:38.242Z,11.27
2018-11-04T20:38:06.816Z,11.27
2018-11-04T20:40:40.560Z,11.28
2018-11-04T20:43:08.939Z,11.27
2018-11-04T20:45:37.289Z,11.28
2018-11-04T20:50:37.494Z,11.28
2018-11-04T20:53:05.904Z,11.27
2018-11-04T20:55:40.212Z,11.28
2018-11-04T20:58:08.725Z,11.30
2018-11-04T21:00:36.997Z,11.30
2018-11-04T21:03:05.401Z,11.31
2018-11-04T21:05:33.769Z,11.28
2018-11-04T21:08:02.169Z,11.32
2018-11-04T21:10:30.511Z,11.32
2018-11-04T21:12:58.942Z,11.35
2018-11-04T21:15:27.289Z,11.35
2018-11-04T21:17:55.663Z,11.33
2018-11-04T21:20:24.027Z,11.34
2018-11-04T21:22:53.240Z,11.34
2018-11-04T21:25:21.631Z,11.32
2018-11-04T21:27:50.092Z,11.29
2018-11-04T21:30:18.374Z,11.32
2018-11-04T21:32:46.692Z,11.32
2018-11-04T21:35:15.041Z,11.35
2018-11-04T21:37:43.424Z,11.36
2018-11-04T21:40:11.814Z,11.35
2018-11-04T21:42:40.411Z,11.34
2018-11-04T21:45:10.464Z,11.36
2018-11-04T21:47:38.881Z,11.35
2018-11-04T21:50:08.200Z,11.37
2018-11-04T21:52:36.603Z,11.35
2018-11-04T21:55:05.497Z,11.34
2018-11-04T21:57:33.939Z,11.35
2018-11-04T22:00:02.208Z,11.35
2018-11-04T22:02:30.660Z,11.37
2018-11-04T22:04:58.963Z,11.37
2018-11-04T22:07:27.334Z,11.39
2018-11-04T22:09:55.686Z,11.31
2018-11-04T22:12:24.037Z,11.35
2018-11-04T22:14:52.416Z,11.34
2018-11-04T22:17:20.795Z,11.33
2018-11-04T22:19:49.178Z,11.32
2018-11-04T22:22:17.604Z,11.36
2018-11-04T22:24:45.910Z,11.38
2018-11-04T22:27:14.419Z,11.36
2018-11-04T22:29:42.796Z,11.39
2018-11-04T22:32:11.140Z,11.40
2018-11-04T22:34:39.509Z,11.41
2018-11-04T22:37:07.855Z,11.40
2018-11-04T22:39:36.237Z,11.39
2018-11-04T22:42:04.614Z,11.36
2018-11-04T22:44:32.969Z,11.36
2018-11-04T22:47:01.327Z,11.37
2018-11-04T22:49:29.686Z,11.36
2018-11-04T22:51:58.111Z,11.36
2018-11-04T22:54:26.494Z,11.35
2018-11-04T22:56:54.828Z,11.35
2018-11-04T22:59:23.197Z,11.37
2018-11-04T23:01:51.571Z,11.37
2018-11-04T23:04:24.917Z,11.39
2018-11-04T23:06:53.265Z,11.39
2018-11-04T23:09:21.824Z,11.38
2018-11-04T23:11:50.182Z,11.39
2018-11-04T23:14:18.597Z,11.37
2018-11-04T23:16:46.941Z,11.35
2018-11-04T23:19:15.294Z,11.36
2018-11-04T23:21:43.637Z,11.37
2018-11-04T23:24:12.225Z,11.41
2018-11-04T23:26:40.590Z,11.40
2018-11-04T23:29:09.117Z,11.40
2018-11-04T23:31:37.459Z,11.41
2018-11-04T23:34:06.079Z,11.42
2018-11-04T23:36:34.428Z,11.46
2018-11-04T23:39:02.840Z,11.47
2018-11-04T23:41:31.170Z,11.40
2018-11-04T23:43:59.542Z,11.43
2018-11-04T23:46:27.901Z,11.44
2018-11-04T23:48:56.252Z,11.44
2018-11-04T23:51:24.595Z,11.41
2018-11-04T23:53:52.954Z,11.42
2018-11-04T23:56:21.314Z,11.44
2018-11-04T23:58:49.670Z,11.44
